createdAt,value
2023-01-15T00:00:22.400Z,67.63
2023-01-15T00:02:53.048Z,67.57
2023-01-15T00:05:23.845Z,67.58
2023-01-15T00:07:54.897Z,67.56
2023-01-15T00:10:25.599Z,67.66
2023-01-15T00:12:56.501Z,67.29
2023-01-15T00:15:27.158Z,67.52
2023-01-15T00:17:58.009Z,67.41
2023-01-15T00:20:29.036Z,67.32
2023-01-15T00:22:59.768Z,67.22
2023-01-15T00:25:48.136Z,67.17
2023-01-15T00:28:18.955Z,67.30
2023-01-15T00:30:49.842Z,67.00
2023-01-15T00:33:20.647Z,67.06
2023-01-15T00:35:52.392Z,66.72
2023-01-15T00:38:23.082Z,66.81
2023-01-15T00:40:53.866Z,66.78
2023-01-15T00:43:24.532Z,66.92
2023-01-15T00:45:55.219Z,66.98
2023-01-15T00:48:26.004Z,66.87
2023-01-15T00:50:56.635Z,66.73
2023-01-15T00:53:27.439Z,66.73
2023-01-15T00:55:58.220Z,66.51
2023-01-15T00:58:28.959Z,66.60
2023-01-15T01:01:01.012Z,66.85
2023-01-15T01:03:32.364Z,66.72
2023-01-15T01:06:07.566Z,66.61
2023-01-15T01:08:38.358Z,66.39
2023-01-15T01:11:11.085Z,66.11
2023-01-15T01:13:42.298Z,66.40
2023-01-15T01:16:27.044Z,66.56
2023-01-15T01:18:58.016Z,66.49
2023-01-15T01:21:29.098Z,66.27
2023-01-15T01:24:01.032Z,66.36
2023-01-15T01:26:32.497Z,66.45
2023-01-15T01:29:03.649Z,66.10
2023-01-15T01:31:34.521Z,66.32
2023-01-15T01:34:05.323Z,66.30
2023-01-15T01:36:37.592Z,66.64
2023-01-15T01:39:13.237Z,66.49
2023-01-15T01:41:44.754Z,66.60
2023-01-15T01:44:46.049Z,66.48
2023-01-15T01:47:22.942Z,66.53
2023-01-15T01:49:58.790Z,66.24
2023-01-15T01:52:32.048Z,66.66
2023-01-15T01:55:05.419Z,66.23
2023-01-15T01:57:37.177Z,66.45
2023-01-15T02:00:11.558Z,66.27
2023-01-15T02:02:47.307Z,66.44
2023-01-15T02:05:23.534Z,66.28
2023-01-15T02:07:54.296Z,66.15
2023-01-15T02:10:25.723Z,66.15
2023-01-15T02:13:02.750Z,66.24
2023-01-15T02:15:37.883Z,66.24
2023-01-15T02:18:18.033Z,66.21
2023-01-15T02:20:52.667Z,66.26
2023-01-15T02:23:51.398Z,66.26
2023-01-15T02:27:00.906Z,66.16
2023-01-15T02:29:41.971Z,66.50
2023-01-15T02:32:25.763Z,66.45
2023-01-15T02:35:01.093Z,66.26
2023-01-15T02:37:38.344Z,66.15
2023-01-15T02:40:15.865Z,66.22
2023-01-15T02:42:49.472Z,66.28
2023-01-15T02:45:27.824Z,66.15
2023-01-15T02:48:06.964Z,66.18
2023-01-15T02:50:42.057Z,66.39
2023-01-15T02:53:19.077Z,66.19
2023-01-15T02:55:53.400Z,66.21
2023-01-15T02:58:32.420Z,66.12
2023-01-15T03:01:10.770Z,66.15
2023-01-15T03:03:46.699Z,66.25
2023-01-15T03:06:23.008Z,66.06
2023-01-15T03:08:54.004Z,65.97
2023-01-15T03:11:25.513Z,65.95
2023-01-15T03:14:09.424Z,66.10
2023-01-15T03:16:46.687Z,66.06
2023-01-15T03:19:23.572Z,66.29
2023-01-15T03:21:59.525Z,66.25
2023-01-15T03:24:34.430Z,66.23
2023-01-15T03:27:05.443Z,66.07
2023-01-15T03:29:40.285Z,65.93
2023-01-15T03:32:11.321Z,66.22
2023-01-15T03:34:46.416Z,66.01
2023-01-15T03:37:22.040Z,65.91
2023-01-15T03:39:54.195Z,65.82
2023-01-15T03:42:38.838Z,66.04
2023-01-15T03:45:17.817Z,65.78
2023-01-15T03:47:59.181Z,65.94
2023-01-15T03:50:38.437Z,65.87
2023-01-15T03:53:18.131Z,65.64
2023-01-15T03:56:08.161Z,65.64
2023-01-15T03:58:47.150Z,66.01
2023-01-15T04:01:25.398Z,65.86
2023-01-15T04:03:59.589Z,65.52
2023-01-15T04:06:33.266Z,65.96
2023-01-15T04:09:05.970Z,65.63
2023-01-15T04:11:37.322Z,65.67
2023-01-15T04:14:13.825Z,65.62
2023-01-15T04:16:48.309Z,65.47
2023-01-15T04:19:19.268Z,65.65
2023-01-15T04:21:58.784Z,65.40
2023-01-15T04:24:29.548Z,65.55
2023-01-15T04:27:00.257Z,65.74
2023-01-15T04:29:31.045Z,65.26
2023-01-15T04:32:01.963Z,65.32
2023-01-15T04:34:34.867Z,65.53
2023-01-15T04:37:05.793Z,65.35
2023-01-15T04:39:36.655Z,65.69
2023-01-15T04:42:27.029Z,65.39
2023-01-15T04:44:57.839Z,65.79
2023-01-15T04:47:31.118Z,66.05
2023-01-15T04:50:01.871Z,65.85
2023-01-15T04:52:32.511Z,65.82
2023-01-15T04:55:03.253Z,65.93
2023-01-15T04:57:35.465Z,65.63
2023-01-15T05:00:07.838Z,65.86
2023-01-15T05:02:38.702Z,65.66
2023-01-15T05:05:11.350Z,65.37
2023-01-15T05:07:42.132Z,65.54
2023-01-15T05:10:13.563Z,65.53
2023-01-15T05:12:44.312Z,65.46
2023-01-15T05:15:15.259Z,65.55
2023-01-15T05:17:46.099Z,65.45
2023-01-15T05:20:17.760Z,65.14
2023-01-15T05:22:48.470Z,65.31
2023-01-15T05:25:19.339Z,65.26
2023-01-15T05:27:50.165Z,65.28
2023-01-15T05:30:21.585Z,65.00
2023-01-15T05:32:52.242Z,64.99
2023-01-15T05:35:23.304Z,65.24
2023-01-15T05:37:54.039Z,65.20
2023-01-15T05:40:24.771Z,65.27
2023-01-15T05:42:56.358Z,65.17
2023-01-15T05:45:27.278Z,65.03
2023-01-15T05:47:57.993Z,64.80
2023-01-15T05:50:29.113Z,64.81
2023-01-15T05:52:59.984Z,65.10
2023-01-15T05:55:31.100Z,64.99
2023-01-15T05:58:02.126Z,65.03
2023-01-15T06:00:32.871Z,64.89
2023-01-15T06:03:03.715Z,64.97
2023-01-15T06:05:34.485Z,64.82
2023-01-15T06:08:05.558Z,64.91
2023-01-15T06:10:36.377Z,65.04
2023-01-15T06:13:07.213Z,64.99
2023-01-15T06:15:37.976Z,64.77
2023-01-15T06:18:09.153Z,64.86
2023-01-15T06:20:40.882Z,64.76
2023-01-15T06:23:11.976Z,64.92
2023-01-15T06:25:42.824Z,65.07
2023-01-15T06:28:14.145Z,65.03
2023-01-15T06:30:44.884Z,65.13
2023-01-15T06:33:15.569Z,65.32
2023-01-15T06:35:46.682Z,64.92
2023-01-15T06:38:17.669Z,65.09
2023-01-15T06:40:48.443Z,65.30
2023-01-15T06:43:37.114Z,65.42
2023-01-15T06:46:27.016Z,64.96
2023-01-15T06:48:57.770Z,65.40
2023-01-15T06:51:30.980Z,65.30
2023-01-15T06:54:01.999Z,65.32
2023-01-15T06:56:32.791Z,65.52
2023-01-15T06:59:03.543Z,65.52
2023-01-15T07:01:34.332Z,65.62
2023-01-15T07:04:05.168Z,65.96
2023-01-15T07:06:35.934Z,65.99
2023-01-15T07:09:06.792Z,66.09
2023-01-15T07:11:49.669Z,66.19
2023-01-15T07:14:23.070Z,66.35
2023-01-15T07:16:54.058Z,66.68
2023-01-15T07:19:24.788Z,66.55
2023-01-15T07:21:55.671Z,66.74
2023-01-15T07:24:26.585Z,66.91
2023-01-15T07:26:57.358Z,67.15
2023-01-15T07:29:29.563Z,67.14
2023-01-15T07:32:01.473Z,67.18
2023-01-15T07:34:32.124Z,67.24
2023-01-15T07:37:02.801Z,67.34
2023-01-15T07:39:33.567Z,67.52
2023-01-15T07:42:22.151Z,67.37
2023-01-15T07:45:12.263Z,67.63
2023-01-15T07:48:00.575Z,67.60
2023-01-15T07:50:31.322Z,67.71
2023-01-15T07:53:02.015Z,67.61
2023-01-15T07:55:34.577Z,67.70
2023-01-15T07:58:08.067Z,67.70
2023-01-15T08:00:40.637Z,67.81
2023-01-15T08:03:12.904Z,68.02
2023-01-15T08:05:43.743Z,67.96
2023-01-15T08:08:18.687Z,67.90
2023-01-15T08:11:07.466Z,67.84
2023-01-15T08:13:56.222Z,67.82
2023-01-15T08:16:27.131Z,67.91
2023-01-15T08:18:58.162Z,68.04
2023-01-15T08:21:29.044Z,68.21
2023-01-15T08:23:59.847Z,68.13
2023-01-15T08:26:30.715Z,68.25
2023-01-15T08:29:01.681Z,68.54
2023-01-15T08:31:33.484Z,68.48
2023-01-15T08:34:07.969Z,68.54
2023-01-15T08:36:38.936Z,68.47
2023-01-15T08:39:09.795Z,68.77
2023-01-15T08:41:40.661Z,68.50
2023-01-15T08:44:12.073Z,68.62
2023-01-15T08:46:42.931Z,68.91
2023-01-15T08:49:13.978Z,68.71
2023-01-15T08:51:45.304Z,68.76
2023-01-15T08:54:16.765Z,68.92
2023-01-15T08:56:47.913Z,68.79
2023-01-15T08:59:19.317Z,69.14
2023-01-15T09:01:50.212Z,69.14
2023-01-15T09:04:22.819Z,69.15
2023-01-15T09:06:53.611Z,69.20
2023-01-15T09:09:24.734Z,69.09
2023-01-15T09:11:55.635Z,69.10
2023-01-15T09:14:56.824Z,69.06
2023-01-15T09:17:17.311Z,69.27
2023-01-15T09:19:48.714Z,69.43
2023-01-15T09:22:19.525Z,69.39
2023-01-15T09:24:50.862Z,69.33
2023-01-15T09:27:21.887Z,69.33
2023-01-15T09:29:53.026Z,69.44
2023-01-15T09:32:24.834Z,69.72
2023-01-15T09:34:55.712Z,69.74
2023-01-15T09:37:26.621Z,69.79
2023-01-15T09:39:57.324Z,69.67
2023-01-15T09:42:38.475Z,69.84
2023-01-15T09:45:21.534Z,70.02
2023-01-15T09:48:07.572Z,70.07
2023-01-15T09:50:50.908Z,70.18
2023-01-15T09:53:44.228Z,70.01
2023-01-15T09:56:24.681Z,70.04
2023-01-15T09:58:59.816Z,70.34
2023-01-15T10:01:31.849Z,70.21
2023-01-15T10:04:08.536Z,70.43
2023-01-15T10:06:46.735Z,70.29
2023-01-15T10:09:18.185Z,70.42
2023-01-15T10:12:10.446Z,70.45
2023-01-15T10:14:51.573Z,70.63
2023-01-15T10:17:27.608Z,70.75
2023-01-15T10:19:59.275Z,70.64
2023-01-15T10:22:49.351Z,70.56
2023-01-15T10:25:25.710Z,70.63
2023-01-15T10:28:00.814Z,70.88
2023-01-15T10:30:37.556Z,70.97
2023-01-15T10:33:30.513Z,71.01
2023-01-15T10:36:07.854Z,70.91
2023-01-15T10:38:49.935Z,70.94
2023-01-15T10:41:40.261Z,70.89
2023-01-15T10:44:19.355Z,70.92
2023-01-15T10:46:57.036Z,71.05
2023-01-15T10:49:31.553Z,71.12
2023-01-15T10:52:09.013Z,71.01
2023-01-15T10:54:43.195Z,71.14
2023-01-15T10:57:21.652Z,71.31
2023-01-15T10:59:57.591Z,71.43
2023-01-15T11:02:32.812Z,71.42
2023-01-15T11:05:04.622Z,71.42
2023-01-15T11:07:59.340Z,71.51
2023-01-15T11:10:31.836Z,71.39
2023-01-15T11:13:35.255Z,71.56
2023-01-15T11:16:24.579Z,71.64
2023-01-15T11:19:14.243Z,71.67
2023-01-15T11:21:48.425Z,71.69
2023-01-15T11:24:21.015Z,71.75
2023-01-15T11:26:55.000Z,71.72
2023-01-15T11:29:34.961Z,71.84
2023-01-15T11:32:19.429Z,71.91
2023-01-15T11:34:57.187Z,71.82
2023-01-15T11:37:28.771Z,71.63
2023-01-15T11:40:06.194Z,71.68
2023-01-15T11:42:57.971Z,71.63
2023-01-15T11:45:46.278Z,71.57
2023-01-15T11:48:37.653Z,71.70
2023-01-15T11:51:11.708Z,71.72
2023-01-15T11:53:47.141Z,71.56
2023-01-15T11:56:20.919Z,71.72
2023-01-15T11:58:54.485Z,71.73
2023-01-15T12:01:28.888Z,71.74
2023-01-15T12:04:02.023Z,71.88
2023-01-15T12:06:37.166Z,71.80
2023-01-15T12:09:18.456Z,71.69
2023-01-15T12:12:05.102Z,71.56
2023-01-15T12:14:47.020Z,71.73
2023-01-15T12:17:28.274Z,71.60
2023-01-15T12:20:08.720Z,71.63
2023-01-15T12:22:52.218Z,71.90
2023-01-15T12:25:36.035Z,71.84
2023-01-15T12:28:13.454Z,71.88
2023-01-15T12:30:56.616Z,71.91
2023-01-15T12:33:42.158Z,71.89
2023-01-15T12:36:13.466Z,71.69
2023-01-15T12:38:59.897Z,71.71
2023-01-15T12:41:48.711Z,71.85
2023-01-15T12:44:43.614Z,71.71
2023-01-15T12:47:20.013Z,71.89
2023-01-15T12:49:59.005Z,71.86
2023-01-15T12:52:37.093Z,72.08
2023-01-15T12:55:15.157Z,72.00
2023-01-15T12:57:48.417Z,72.03
2023-01-15T13:00:26.122Z,71.98
2023-01-15T13:03:11.291Z,71.87
2023-01-15T13:05:47.931Z,71.91
2023-01-15T13:08:27.005Z,71.81
2023-01-15T13:10:57.990Z,71.72
2023-01-15T13:13:33.638Z,71.76
2023-01-15T13:16:19.410Z,71.56
2023-01-15T13:19:00.553Z,71.58
2023-01-15T13:21:35.133Z,71.43
2023-01-15T13:24:25.185Z,71.20
2023-01-15T13:27:07.087Z,71.13
2023-01-15T13:29:51.531Z,71.00
2023-01-15T13:32:25.414Z,70.75
2023-01-15T13:35:01.040Z,70.50
2023-01-15T13:37:36.342Z,70.36
2023-01-15T13:40:13.524Z,70.43
2023-01-15T13:42:49.892Z,70.30
2023-01-15T13:45:37.036Z,70.19
2023-01-15T13:48:13.476Z,70.07
2023-01-15T13:50:53.716Z,69.89
2023-01-15T13:53:30.054Z,70.04
2023-01-15T13:56:05.986Z,69.68
2023-01-15T13:58:39.826Z,69.74
2023-01-15T14:01:25.988Z,69.40
2023-01-15T14:04:03.283Z,69.48
2023-01-15T14:06:46.427Z,69.23
2023-01-15T14:09:31.994Z,69.07
2023-01-15T14:12:08.093Z,69.10
2023-01-15T14:14:50.824Z,68.82
2023-01-15T14:17:42.207Z,68.85
2023-01-15T14:20:38.441Z,68.84
2023-01-15T14:23:26.937Z,68.87
2023-01-15T14:26:11.846Z,68.87
2023-01-15T14:28:59.890Z,68.69
2023-01-15T14:31:51.603Z,68.63
2023-01-15T14:34:27.325Z,68.54
2023-01-15T14:37:01.459Z,68.42
2023-01-15T14:39:42.580Z,68.19
2023-01-15T14:42:36.427Z,68.11
2023-01-15T14:45:10.209Z,68.14
2023-01-15T14:47:48.878Z,67.73
2023-01-15T14:50:33.930Z,67.62
2023-01-15T14:53:17.556Z,67.44
2023-01-15T14:55:51.524Z,67.39
2023-01-15T14:58:38.505Z,67.25
2023-01-15T15:01:18.513Z,67.18
2023-01-15T15:03:56.519Z,67.02
2023-01-15T15:06:29.240Z,66.88
2023-01-15T15:09:13.735Z,66.82
2023-01-15T15:12:07.631Z,66.69
2023-01-15T15:14:42.030Z,66.68
2023-01-15T15:17:27.010Z,66.58
2023-01-15T15:20:09.399Z,66.48
2023-01-15T15:22:42.760Z,66.39
2023-01-15T15:25:22.658Z,66.33
2023-01-15T15:28:04.624Z,66.12
2023-01-15T15:30:41.237Z,65.98
2023-01-15T15:33:18.306Z,65.81
2023-01-15T15:35:51.703Z,65.85
2023-01-15T15:38:25.361Z,65.57
2023-01-15T15:40:59.044Z,65.76
2023-01-15T15:43:54.549Z,65.61
2023-01-15T15:46:48.524Z,65.56
2023-01-15T15:49:22.668Z,65.47
2023-01-15T15:51:54.299Z,65.40
2023-01-15T15:54:27.898Z,65.25
2023-01-15T15:57:03.313Z,65.38
2023-01-15T15:59:36.948Z,65.29
2023-01-15T16:02:20.729Z,65.18
2023-01-15T16:04:53.410Z,65.39
2023-01-15T16:07:33.703Z,65.38
2023-01-15T16:10:13.733Z,65.57
2023-01-15T16:12:47.955Z,65.68
2023-01-15T16:15:21.000Z,65.64
2023-01-15T16:17:52.572Z,65.68
2023-01-15T16:20:23.872Z,65.67
2023-01-15T16:22:58.444Z,65.64
2023-01-15T16:25:31.928Z,65.64
2023-01-15T16:28:03.852Z,66.02
2023-01-15T16:30:35.966Z,65.83
2023-01-15T16:33:08.847Z,66.07
2023-01-15T16:35:39.739Z,66.12
2023-01-15T16:38:21.840Z,66.20
2023-01-15T16:40:52.833Z,66.33
2023-01-15T16:43:26.319Z,66.46
2023-01-15T16:46:06.698Z,66.50
2023-01-15T16:48:40.270Z,66.72
2023-01-15T16:51:33.165Z,67.01
2023-01-15T16:54:05.735Z,66.88
2023-01-15T16:56:55.194Z,66.95
2023-01-15T17:00:01.124Z,67.23
2023-01-15T17:02:44.045Z,67.40
2023-01-15T17:05:23.195Z,67.57
2023-01-15T17:07:56.075Z,67.72
2023-01-15T17:10:31.727Z,68.03
2023-01-15T17:13:02.632Z,68.22
2023-01-15T17:15:43.533Z,68.37
2023-01-15T17:18:29.220Z,68.31
2023-01-15T17:21:01.169Z,68.33
2023-01-15T17:23:42.535Z,68.49
2023-01-15T17:26:18.226Z,68.68
2023-01-15T17:28:49.735Z,68.74
2023-01-15T17:31:30.288Z,68.94
2023-01-15T17:34:03.360Z,68.93
2023-01-15T17:36:34.650Z,68.98
2023-01-15T17:39:05.556Z,69.25
2023-01-15T17:41:36.467Z,69.38
2023-01-15T17:44:08.006Z,69.58
2023-01-15T17:46:39.297Z,69.77
2023-01-15T17:49:10.077Z,69.93
2023-01-15T17:51:41.038Z,69.92
2023-01-15T17:54:11.920Z,69.90
2023-01-15T17:57:00.333Z,69.99
2023-01-15T17:59:48.715Z,70.05
2023-01-15T18:02:41.384Z,70.26
2023-01-15T18:05:27.669Z,70.34
2023-01-15T18:08:00.907Z,70.44
2023-01-15T18:10:32.406Z,70.57
2023-01-15T18:13:04.085Z,70.65
2023-01-15T18:15:35.136Z,70.74
2023-01-15T18:18:05.980Z,70.97
2023-01-15T18:20:36.944Z,70.93
2023-01-15T18:23:08.038Z,71.01
2023-01-15T18:25:45.967Z,71.18
2023-01-15T18:28:18.838Z,71.32
2023-01-15T18:30:49.783Z,71.58
2023-01-15T18:33:20.917Z,71.68
2023-01-15T18:35:51.981Z,71.75
2023-01-15T18:38:22.753Z,71.85
2023-01-15T18:40:53.639Z,71.91
2023-01-15T18:43:42.615Z,71.95
2023-01-15T18:46:46.549Z,71.98
2023-01-15T18:49:17.443Z,71.83
2023-01-15T18:52:08.372Z,71.85
2023-01-15T18:54:39.688Z,71.70
2023-01-15T18:57:10.590Z,71.61
2023-01-15T18:59:41.512Z,71.80
2023-01-15T19:02:13.758Z,71.76
2023-01-15T19:04:44.864Z,71.73
2023-01-15T19:07:16.502Z,71.68
2023-01-15T19:09:47.690Z,71.87
2023-01-15T19:12:19.957Z,71.84
2023-01-15T19:15:09.107Z,71.73
2023-01-15T19:17:57.212Z,71.83
2023-01-15T19:20:28.076Z,71.82
2023-01-15T19:23:05.743Z,71.87
2023-01-15T19:25:40.624Z,71.96
2023-01-15T19:28:14.376Z,71.94
2023-01-15T19:31:06.589Z,72.03
2023-01-15T19:33:38.616Z,71.91
2023-01-15T19:36:10.666Z,71.83
2023-01-15T19:38:41.850Z,71.92
2023-01-15T19:41:27.687Z,72.01
2023-01-15T19:44:16.939Z,72.02
2023-01-15T19:47:05.889Z,72.06
2023-01-15T19:49:56.023Z,72.10
2023-01-15T19:52:36.090Z,72.11
2023-01-15T19:55:10.793Z,72.12
2023-01-15T19:57:43.444Z,72.18
2023-01-15T20:00:18.298Z,72.21
2023-01-15T20:02:49.636Z,72.29
2023-01-15T20:05:22.080Z,72.28
2023-01-15T20:07:53.071Z,72.21
2023-01-15T20:10:26.536Z,72.28
2023-01-15T20:13:17.028Z,72.46
2023-01-15T20:15:48.623Z,72.29
2023-01-15T20:18:22.928Z,72.19
2023-01-15T20:20:57.145Z,72.15
2023-01-15T20:23:27.964Z,72.24
2023-01-15T20:26:03.951Z,72.32
2023-01-15T20:28:36.079Z,72.61
2023-01-15T20:31:07.223Z,72.49
2023-01-15T20:33:38.988Z,72.69
2023-01-15T20:36:11.336Z,72.50
2023-01-15T20:38:42.181Z,72.65
2023-01-15T20:41:30.869Z,72.70
2023-01-15T20:44:18.961Z,72.63
2023-01-15T20:46:49.870Z,72.73
2023-01-15T20:49:28.131Z,72.77
2023-01-15T20:52:01.021Z,72.95
2023-01-15T20:54:32.104Z,73.01
2023-01-15T20:57:02.943Z,72.83
2023-01-15T20:59:33.800Z,72.93
2023-01-15T21:02:04.657Z,72.90
2023-01-15T21:04:36.026Z,73.08
2023-01-15T21:07:07.193Z,73.17
2023-01-15T21:09:38.057Z,73.11
2023-01-15T21:12:09.209Z,73.01
2023-01-15T21:14:40.110Z,73.11
2023-01-15T21:17:11.218Z,72.85
2023-01-15T21:19:42.061Z,73.34
2023-01-15T21:22:13.904Z,73.25
2023-01-15T21:24:44.685Z,73.16
2023-01-15T21:27:15.541Z,73.37
2023-01-15T21:29:48.333Z,73.20
2023-01-15T21:32:20.323Z,73.18
2023-01-15T21:34:51.242Z,73.03
2023-01-15T21:37:22.734Z,73.08
2023-01-15T21:39:53.760Z,73.09
2023-01-15T21:42:42.235Z,73.02
2023-01-15T21:45:13.457Z,72.78
2023-01-15T21:47:44.993Z,72.61
2023-01-15T21:50:15.518Z,72.67
2023-01-15T21:52:48.440Z,72.77
2023-01-15T21:55:19.618Z,72.86
2023-01-15T21:57:51.480Z,72.72
2023-01-15T22:00:22.813Z,72.74
2023-01-15T22:02:55.933Z,72.80
2023-01-15T22:05:26.983Z,72.70
2023-01-15T22:07:58.053Z,72.65
2023-01-15T22:10:29.228Z,72.68
2023-01-15T22:13:00.447Z,72.74
2023-01-15T22:15:31.644Z,72.62
2023-01-15T22:18:02.398Z,72.56
2023-01-15T22:20:33.332Z,72.56
2023-01-15T22:23:04.081Z,72.51
2023-01-15T22:25:35.207Z,72.52
2023-01-15T22:28:06.247Z,72.20
2023-01-15T22:30:39.620Z,72.06
2023-01-15T22:33:11.003Z,72.07
2023-01-15T22:35:41.677Z,72.20
2023-01-15T22:38:12.603Z,72.30
2023-01-15T22:40:43.363Z,72.47
2023-01-15T22:43:14.177Z,72.28
2023-01-15T22:45:44.917Z,72.09
2023-01-15T22:48:15.941Z,72.35
2023-01-15T22:50:46.686Z,72.11
2023-01-15T22:53:17.376Z,72.22
2023-01-15T22:55:55.494Z,72.34
2023-01-15T22:58:27.425Z,72.26
2023-01-15T23:00:58.538Z,72.20
2023-01-15T23:03:29.412Z,72.21
2023-01-15T23:06:05.907Z,72.19
2023-01-15T23:08:37.894Z,72.27
2023-01-15T23:11:13.203Z,71.92
2023-01-15T23:13:44.272Z,72.29
2023-01-15T23:16:15.134Z,72.32
2023-01-15T23:18:46.176Z,72.32
2023-01-15T23:21:19.683Z,72.20
2023-01-15T23:23:53.784Z,72.16
2023-01-15T23:26:25.358Z,72.33
2023-01-15T23:28:56.257Z,72.02
2023-01-15T23:31:27.630Z,72.22
2023-01-15T23:33:59.761Z,72.13
2023-01-15T23:36:30.926Z,72.09
2023-01-15T23:39:01.664Z,72.11
2023-01-15T23:41:49.665Z,71.72
2023-01-15T23:44:39.656Z,71.87
2023-01-15T23:47:10.783Z,71.78
2023-01-15T23:49:41.514Z,71.67
2023-01-15T23:52:12.234Z,71.83
2023-01-15T23:54:42.953Z,71.79
2023-01-15T23:57:13.707Z,71.66
2023-01-15T23:59:44.978Z,71.54
